• Join FlightAware (Why Join?)
  • Login
  • US Flag 
03:10AM EDT


 

Airport Tracker/Info


-or-


 

Live Flight TrackerFlight Track Log ✈ USC110 ✈ 20-Apr-2014 ✈ KCLT - KLCK

Flight Track Log - Related Links

Times and Time Zones

All times are in EDT time to prevent confusion due to time zone crossing. See the USC110 flight status page for this flight to view local times or setup timezone preferences in your user account.

Time Position Orientation Groundspeed Altitude Reporting Facility
EDT Latitude Longitude Course Direction KTS MPH feet Rate Location/Type
06:45PM 35.2703 -80.9378 North 106 122 3,200  Level Atlanta Center
06:46PM 35.2994 -80.9392 358° North 107 123 4,500 540 Climbing Atlanta Center
06:47PM 35.3453 -80.9375 North 146 168 4,400 240 Descending Atlanta Center
06:48PM 35.3767 -80.9439 351° North 131 151 5,000 840 Climbing Atlanta Center
06:49PM 35.4081 -80.9506 350° North 114 131 6,100 1,080 Climbing Atlanta Center
06:50PM 35.4400 -80.9672 337° Northwest 124 143 7,300 1,020 Climbing Atlanta Center
06:51PM 35.4714 -80.9786 344° North 132 152 8,300 900 Climbing Atlanta Center
06:52PM 35.5031 -80.9903 343° North 126 145 9,200 780 Climbing Atlanta Center
06:53PM 35.5347 -81.0069 337° Northwest 126 145 9,900 720 Climbing Atlanta Center
06:54PM 35.5686 -81.0208 342° North 126 145 10,700 840 Climbing Atlanta Center
06:55PM 35.6003 -81.0378 336° Northwest 126 145 11,600 840 Climbing Atlanta Center
06:56PM 35.6319 -81.0519 340° North 126 145 12,400 360 Climbing Atlanta Center
06:57PM 35.6675 -81.0633 345° North 126 145 12,400  Level Atlanta Center
06:58PM 35.7056 -81.0825 338° Northwest 131 151 12,400  Level Atlanta Center
06:59PM 35.7436 -81.0989 341° North 136 157 12,400  Level Atlanta Center
07:00PM 35.7817 -81.1181 338° Northwest 136 157 12,400  Level Atlanta Center
07:01PM 35.8214 -81.1319 344° North 141 162 12,400  Level Atlanta Center
07:02PM 35.8617 -81.1486 341° North 146 168 12,400  Level Atlanta Center
07:03PM 35.9014 -81.1625 344° North 146 168 12,400  Level Atlanta Center
07:04PM 35.9394 -81.1792 340° North 146 168 12,400  Level Atlanta Center
07:05PM 35.9775 -81.1983 338° Northwest 146 168 12,500  Climbing Atlanta Center
07:06PM 36.0153 -81.2150 340° North 146 168 12,500  Level Atlanta Center
07:07PM 36.0533 -81.2317 341° North 146 168 12,500  Level Atlanta Center
07:08PM 36.0933 -81.2456 344° North 146 168 12,500 -60 Level Atlanta Center
07:09PM 36.1311 -81.2647 338° Northwest 146 168 12,400 -60 Descending Atlanta Center
07:10PM 36.1692 -81.2789 343° North 146 168 12,400  Level Atlanta Center
07:11PM 36.2092 -81.2956 341° North 146 168 12,400  Level Atlanta Center
07:12PM 36.2469 -81.3125 340° North 146 168 12,500  Climbing Atlanta Center
07:13PM 36.2892 -81.3289 343° North 146 168 12,400  Descending Atlanta Center
07:14PM 36.3289 -81.3431 344° North 146 168 12,500  Climbing Atlanta Center
07:15PM 36.3669 -81.3625 338° Northwest 146 168 12,400 -60 Descending Atlanta Center
07:16PM 36.4069 -81.3767 344° North 146 168 12,400  Level Atlanta Center
07:17PM 36.4447 -81.3908 343° North 146 168 12,500  Climbing Atlanta Center
07:18PM 36.4847 -81.4100 339° North 146 168 12,400 -60 Descending Atlanta Center
07:19PM 36.5247 -81.4269 341° North 146 168 12,400  Level Atlanta Center
07:20PM 36.5689 -81.4486 338° Northwest 152 175 12,400  Level Atlanta Center
07:21PM 36.6047 -81.4631 342° North 152 175 12,400  Level Atlanta Center
07:22PM 36.6469 -81.4825 340° North 147 169 12,400  Level Atlanta Center
07:23PM 36.6869 -81.5044 336° Northwest 152 175 12,400  Level Atlanta Center
07:24PM 36.7269 -81.5214 341° North 152 175 12,400  Level Atlanta Center
07:25PM 36.7669 -81.5356 344° North 152 175 12,400  Level Atlanta Center
07:26PM 36.8047 -81.5603 332° Northwest 157 181 12,400  Level Atlanta Center
07:27PM 36.8469 -81.5797 340° North 157 181 12,400  Level Atlanta Center
07:28PM 36.8919 -81.5975 342° North 151 174 12,400  Level Indianapolis Center
07:29PM 36.9400 -81.6175 342° North 152 175 12,400  Level Indianapolis Center
07:30PM 36.9814 -81.6369 339° North 152 175 12,400  Level Indianapolis Center
07:31PM 37.0222 -81.6542 341° North 153 176 12,400  Level Indianapolis Center
07:32PM 37.0644 -81.6703 343° North 153 176 12,500  Climbing Indianapolis Center
07:33PM 37.1067 -81.6858 344° North 154 177 12,500  Level Indianapolis Center
07:34PM 37.1486 -81.7028 342° North 154 177 12,500  Level Indianapolis Center
07:35PM 37.1969 -81.7211 343° North 155 178 12,500  Level Indianapolis Center
07:37PM 37.2389 -81.7369 343° North 155 178 12,500  Level Indianapolis Center
07:38PM 37.2800 -81.7531 343° North 155 178 12,500  Level Indianapolis Center
07:39PM 37.3214 -81.7706 341° North 155 178 12,500  Level Indianapolis Center
07:40PM 37.3631 -81.7875 342° North 155 178 12,500  Level Indianapolis Center
07:41PM 37.4053 -81.8036 343° North 155 178 12,600  Climbing Indianapolis Center
07:42PM 37.4467 -81.8233 339° North 156 180 12,500 -60 Descending Indianapolis Center
07:43PM 37.4961 -81.8458 340° North 158 182 12,500  Level Indianapolis Center
07:44PM 37.5389 -81.8661 339° North 159 183 12,500  Level Indianapolis Center
07:45PM 37.5800 -81.8839 341° North 159 183 12,500  Level Indianapolis Center
07:46PM 37.6208 -81.9019 341° North 158 182 12,500  Level Indianapolis Center
07:47PM 37.6625 -81.9183 343° North 158 182 12,500  Level Indianapolis Center
07:48PM 37.7111 -81.9392 341° North 158 182 12,500  Level Indianapolis Center
07:49PM 37.7519 -81.9583 340° North 158 182 12,500  Level Indianapolis Center
07:50PM 37.7931 -81.9786 339° North 158 182 12,600  Climbing Indianapolis Center
07:51PM 37.8336 -81.9967 341° North 157 181 12,500 -120 Descending Indianapolis Center
07:52PM 37.8747 -82.0169 339° North 157 181 12,400 -60 Descending Indianapolis Center
07:53PM 37.9136 -82.0350 340° North 158 182 12,400  Level Indianapolis Center
07:54PM 37.9614 -82.0575 340° North 156 180 12,400  Level Indianapolis Center
07:55PM 38.0017 -82.0772 339° North 156 180 12,400  Level Indianapolis Center
07:56PM 38.0428 -82.0964 340° North 156 180 12,500  Climbing Indianapolis Center
07:57PM 38.0839 -82.1147 341° North 156 180 12,400 -60 Descending Indianapolis Center
07:58PM 38.1247 -82.1342 339° North 156 180 12,400  Level Indianapolis Center
07:59PM 38.1653 -82.1558 337° Northwest 156 180 12,400  Level Indianapolis Center
08:00PM 38.2078 -82.1756 340° North 157 181 12,400  Level Indianapolis Center
08:01PM 38.2489 -82.1972 338° Northwest 157 181 12,400  Level Indianapolis Center
08:02PM 38.2989 -82.2192 341° North 157 181 12,400  Level Indianapolis Center
08:03PM 38.3411 -82.2397 339° North 158 182 12,400  Level Indianapolis Center
08:04PM 38.3839 -82.2592 340° North 159 183 12,400  Level Indianapolis Center
08:05PM 38.4250 -82.2781 340° North 159 183 12,400  Level Indianapolis Center
08:06PM 38.4669 -82.2981 340° North 159 183 12,400  Level Indianapolis Center
08:07PM 38.5086 -82.3172 340° North 159 183 12,400  Level Indianapolis Center
08:08PM 38.5511 -82.3364 341° North 159 183 12,400  Level Indianapolis Center
08:09PM 38.5928 -82.3558 340° North 159 183 12,500  Climbing Indianapolis Center
08:11PM 38.6433 -82.3808 339° North 159 183 12,400 -60 Descending Indianapolis Center
08:12PM 38.6878 -82.4003 341° North 162 186 12,400  Level Indianapolis Center
08:13PM 38.7306 -82.4203 340° North 162 186 12,400  Level Indianapolis Center
08:14PM 38.7736 -82.4372 343° North 162 186 12,400  Level Indianapolis Center
08:15PM 38.8181 -82.4547 343° North 163 188 12,400  Level Indianapolis Center
08:16PM 38.8606 -82.4767 338° Northwest 163 188 12,400 -180 Level Indianapolis Center
08:17PM 38.9031 -82.4964 340° North 163 188 12,100 -540 Descending Indianapolis Center
08:18PM 38.9522 -82.5181 341° North 180 207 11,300 -960 Descending Indianapolis Center
08:19PM 39.0075 -82.5497 336° Northwest 181 208 10,200 -1,020 Descending Indianapolis Center
08:20PM 39.0522 -82.5764 335° Northwest 180 207 9,300 -1,020 Descending Indianapolis Center
08:21PM 39.0981 -82.6003 338° Northwest 179 206 8,100 -1,020 Descending Indianapolis Center
08:22PM 39.1464 -82.6208 342° North 179 206 7,300 -720 Descending Indianapolis Center
08:23PM 39.1878 -82.6469 334° Northwest 179 206 6,700 -660 Descending Indianapolis Center
08:23PM 39.2044 -82.6597 329° Northwest 175 201 6,500 -480 Descending Indianapolis Center
08:24PM 39.2325 -82.6711 343° North 178 205 6,200 -600 Descending Indianapolis Center
08:24PM 39.2481 -82.6881 320° Northwest 173 199 5,900 -600 Descending Indianapolis Center
08:25PM 39.2825 -82.7047 339° North 173 199 5,600 -300 Descending Indianapolis Center
08:25PM 39.2897 -82.7133 317° Northwest 169 194 5,600 -540 Level Indianapolis Center
08:26PM 39.3244 -82.7300 340° North 171 197 5,100 -660 Descending Indianapolis Center
08:26PM 39.3397 -82.7400 333° Northwest 168 193 4,900 -420 Descending Indianapolis Center
08:27PM 39.3700 -82.7489 347° North 171 197 4,700 -300 Descending Indianapolis Center
08:27PM 39.3842 -82.7578 334° Northwest 169 194 4,600 -300 Descending Indianapolis Center
08:28PM 39.4125 -82.7667 346° North 167 192 4,400 -240 Descending Indianapolis Center
08:28PM 39.4286 -82.7756 337° Northwest 164 189 4,400 -300 Level Indianapolis Center
08:29PM 39.4550 -82.7894 338° Northwest 167 192 4,100 -480 Descending Indianapolis Center
08:29PM 39.4767 -82.8022 336° Northwest 167 192 3,900 -420 Descending Indianapolis Center
08:30PM 39.4983 -82.8122 340° North 167 192 3,700 -300 Descending Indianapolis Center
08:30PM 39.5183 -82.8278 329° Northwest 168 193 3,600 -240 Descending Indianapolis Center
08:31PM 39.5403 -82.8378 341° North 167 192 3,500 -120 Descending Indianapolis Center
08:31PM 39.5583 -82.8503 332° Northwest 168 193 3,500  Level Indianapolis Center
08:32PM 39.5908 -82.8653 340° North 167 192 3,500  Level Indianapolis Center
08:32PM 39.6022 -82.8736 331° Northwest 184 212 3,500 -240 Level Indianapolis Center
08:33PM 39.6308 -82.8903 336° Northwest 166 191 3,300 -240 Descending Indianapolis Center
08:33PM 39.6417 -82.9014 322° Northwest 171 197 3,300 -540 Level Indianapolis Center
08:34PM 39.6706 -82.9183 336° Northwest 165 190 2,800 -840 Descending Indianapolis Center
08:34PM 39.6831 -82.9297 325° Northwest 165 190 2,500 -660 Descending Indianapolis Center
08:35PM 39.7133 -82.9486 334° Northwest 167 192 2,100 -420 Descending Indianapolis Center
08:36PM 39.7308 -82.9564 341° North 151 174 2,100 -300 Level Indianapolis Center
08:36PM 39.7539 -82.9606 352° North 159 183 1,800 -480 Descending Indianapolis Center
08:37PM 39.7769 -82.9583 North 161 185 1,600 -720 Descending Indianapolis Center
08:37PM 39.7958 -82.9522 14° North 157 181 1,100 -960 Descending Indianapolis Center
08:39PM 39.8000 -82.9167 339° North  Level FlightAware Approximate
08:46PM 39.8138 -82.9278 339° North  Level Estimated